»·PEaware :: N51254 KSMX-KBFL

N51254 :: KSMX-KBFL

FLIGHT INFORMATION

Flight Status: Arrived
Operator: Privately registered:
United States
More flights under this callsign
Pilot: Hasan B. (9605)
Aircraft: CESSNA 172 SKYHAWK
(C172)
More flights by this aircraft type
Origin: KSMX Santa Maria Pub/Capt Hancock
United States
Destination: KBFL Meadows
United States
More flights between these airports :: More routes between these airports
Route: +
File this flight plan on PilotEdge
Remarks:
Altitude:
(Current/Filed)
0ft
Speed:
(Current/Filed)
0kts
Departed: 01-Oct-18 02:37 PM
Arrived: 01-Oct-18 03:36 PM
Distance/Time
Traveled:
76nm/0:58
Distance/Time
To Go:
Arrived

Flight Plot

Page will automatically refresh every two minutes.


Map Options




Map Legend


Flown Route
Filed Route
Departure Airport
Arrival Airport
Navaid (VOR, NDB)
Fix

Horizontal Profiles

Position Reports

Time Latitude Longitude Heading Altitude Ground
Speed
01-Oct-18 14:38 34.982532 -120.429356 51 2946ft 106kts
01-Oct-18 14:39 34.995373 -120.411278 44 3444ft 97kts
01-Oct-18 14:40 35.008611 -120.396873 35 3996ft 89kts
01-Oct-18 14:41 35.017652 -120.377201 74 4415ft 92kts
01-Oct-18 14:42 35.021669 -120.355070 72 4857ft 93kts
01-Oct-18 14:43 35.027329 -120.336057 63 5283ft 89kts
01-Oct-18 14:44 35.036240 -120.317902 32 5731ft 83kts
01-Oct-18 14:45 35.043410 -120.302566 87 6066ft 86kts
01-Oct-18 14:46 35.047789 -120.286548 66 6522ft 73kts
01-Oct-18 14:47 35.052100 -120.270575 77 6854ft 76kts
01-Oct-18 14:48 35.053874 -120.254154 90 7170ft 78kts
01-Oct-18 14:49 35.057645 -120.238704 63 7482ft 78kts
01-Oct-18 14:50 35.065717 -120.220981 65 7603ft 102kts
01-Oct-18 14:51 35.073344 -120.199377 65 7644ft 118kts
01-Oct-18 14:52 35.082255 -120.176474 66 7656ft 109kts
01-Oct-18 14:53 35.088522 -120.153885 76 7619ft 108kts
01-Oct-18 14:54 35.095246 -120.125876 69 7635ft 103kts
01-Oct-18 14:55 35.100499 -120.107194 67 7630ft 103kts
01-Oct-18 14:56 35.118319 -120.064572 70 7620ft 105kts
01-Oct-18 14:57 35.132352 -120.018944 62 7705ft 106kts
01-Oct-18 14:58 35.149935 -119.973976 79 7749ft 111kts
01-Oct-18 14:59 35.169458 -119.928633 59 7721ft 114kts
01-Oct-18 15:00 35.188509 -119.879787 65 7570ft 122kts
01-Oct-18 15:01 35.200924 -119.844246 68 7480ft 122kts
01-Oct-18 15:02 35.210012 -119.819191 62 7463ft 99kts
01-Oct-18 15:03 35.213833 -119.795854 80 7537ft 97kts
01-Oct-18 15:04 35.215921 -119.772537 66 7636ft 100kts
01-Oct-18 15:05 35.224086 -119.748982 61 7737ft 101kts
01-Oct-18 15:06 35.230274 -119.724507 81 7715ft 110kts
01-Oct-18 15:07 35.236227 -119.699568 69 7789ft 107kts
01-Oct-18 15:08 35.244170 -119.674218 69 7687ft 115kts
01-Oct-18 15:09 35.252435 -119.646883 71 7657ft 114kts
01-Oct-18 15:10 35.251442 -119.621109 124 7566ft 117kts
01-Oct-18 15:11 35.253959 -119.596544 53 7592ft 108kts
01-Oct-18 15:12 35.267352 -119.576968 39 7687ft 105kts
01-Oct-18 15:13 35.282547 -119.559740 66 7655ft 111kts
01-Oct-18 15:14 35.288979 -119.533721 75 7625ft 103kts
01-Oct-18 15:15 35.294142 -119.509430 67 7601ft 104kts
01-Oct-18 15:16 35.302304 -119.485045 76 7591ft 102kts
01-Oct-18 15:17 35.318847 -119.437793 67 7621ft 100kts
01-Oct-18 15:18 35.329129 -119.392194 71 6882ft 97kts
01-Oct-18 15:19 35.343962 -119.349207 65 6124ft 94kts
01-Oct-18 15:20 35.349918 -119.324742 81 5685ft 96kts
01-Oct-18 15:21 35.358076 -119.304752 73 5307ft 95kts
01-Oct-18 15:22 35.363858 -119.282749 70 4924ft 96kts
01-Oct-18 15:23 35.371476 -119.262615 61 4589ft 93kts
01-Oct-18 15:24 35.378104 -119.240934 71 4176ft 96kts
01-Oct-18 15:25 35.384943 -119.220978 66 3829ft 95kts
01-Oct-18 15:26 35.392212 -119.201416 65 3500ft 94kts
01-Oct-18 15:27 35.398599 -119.182462 65 3155ft 97kts
01-Oct-18 15:28 35.402747 -119.163325 81 2680ft 109kts
01-Oct-18 15:29 35.406863 -119.142942 72 2327ft 104kts
01-Oct-18 15:30 35.412658 -119.123852 71 1884ft 109kts
01-Oct-18 15:31 35.417559 -119.103250 76 1756ft 99kts
01-Oct-18 15:32 35.422702 -119.084016 66 1678ft 102kts
01-Oct-18 15:33 35.427433 -119.065312 126 1589ft 103kts
01-Oct-18 15:34 35.415048 -119.051514 145 1373ft 105kts
01-Oct-18 15:35 35.411327 -119.038625 39 1034ft 69kts
01-Oct-18 15:36 35.422298 -119.045788 314 616ft 64kts
01-Oct-18 15:37 35.431020 -119.056305 314 482ft 56kts
01-Oct-18 15:38 35.434156 -119.060834 228 481ft 2kts
01-Oct-18 15:39 35.432819 -119.059649 135 480ft 18kts
01-Oct-18 15:40 35.429223 -119.055292 137 473ft 36kts
01-Oct-18 15:41 35.425990 -119.051420 136 468ft 18kts
01-Oct-18 15:42 35.425390 -119.051499 211 467ft 0kts
01-Oct-18 15:43 35.424678 -119.052463 10 464ft 0kts
01-Oct-18 15:44 35.424678 -119.052462 22 464ft 0kts
01-Oct-18 15:45 35.424678 -119.052462 22 464ft 0kts
01-Oct-18 15:46 35.424678 -119.052462 22 464ft 0kts
01-Oct-18 15:47 35.424678 -119.052462 22 464ft 0kts
01-Oct-18 15:48 35.424678 -119.052462 22 464ft 0kts
01-Oct-18 15:49 35.424678 -119.052462 22 464ft 0kts
01-Oct-18 15:50 35.424678 -119.052462 22 464ft 0kts
01-Oct-18 15:51 35.424678 -119.052462 22 464ft 0kts
01-Oct-18 15:52 35.424678 -119.052462 22 464ft 0kts

Navigation Log

Ident Type
Flight plan parsing failed, navigation log unavailable